sensor_id;sensor_type;location;lat;lon;timestamp;temperature;humidity
69204;DHT22;56317;27.658;85.326;2023-12-28T00:01:29;7.50;99.90
69204;DHT22;56317;27.658;85.326;2023-12-28T00:03:55;7.50;99.90
69204;DHT22;56317;27.658;85.326;2023-12-28T00:06:21;7.40;99.90
69204;DHT22;56317;27.658;85.326;2023-12-28T00:08:48;7.40;99.90
69204;DHT22;56317;27.658;85.326;2023-12-28T00:11:14;7.40;99.90
69204;DHT22;56317;27.658;85.326;2023-12-28T00:13:40;7.30;99.90
69204;DHT22;56317;27.658;85.326;2023-12-28T00:16:06;7.30;99.90
69204;DHT22;56317;27.658;85.326;2023-12-28T00:18:33;7.20;99.90
69204;DHT22;56317;27.658;85.326;2023-12-28T00:20:59;7.10;99.90
69204;DHT22;56317;27.658;85.326;2023-12-28T00:23:25;7.10;99.90
69204;DHT22;56317;27.658;85.326;2023-12-28T00:25:51;7.00;99.90
69204;DHT22;56317;27.658;85.326;2023-12-28T00:28:18;7.00;99.90
69204;DHT22;56317;27.658;85.326;2023-12-28T00:30:44;7.00;99.90
69204;DHT22;56317;27.658;85.326;2023-12-28T00:33:10;7.00;99.90
69204;DHT22;56317;27.658;85.326;2023-12-28T00:35:37;7.00;99.90
69204;DHT22;56317;27.658;85.326;2023-12-28T00:38:03;7.10;99.90
69204;DHT22;56317;27.658;85.326;2023-12-28T00:40:29;7.20;99.90
69204;DHT22;56317;27.658;85.326;2023-12-28T00:42:55;7.20;99.90
69204;DHT22;56317;27.658;85.326;2023-12-28T00:45:22;7.10;99.90
69204;DHT22;56317;27.658;85.326;2023-12-28T00:47:48;7.00;99.90
69204;DHT22;56317;27.658;85.326;2023-12-28T00:50:17;7.00;99.90
69204;DHT22;56317;27.658;85.326;2023-12-28T00:52:43;7.00;99.90
69204;DHT22;56317;27.658;85.326;2023-12-28T00:55:10;6.90;99.90
69204;DHT22;56317;27.658;85.326;2023-12-28T00:57:36;6.90;99.90
69204;DHT22;56317;27.658;85.326;2023-12-28T01:00:02;6.80;99.90
69204;DHT22;56317;27.658;85.326;2023-12-28T01:02:29;6.80;99.90
69204;DHT22;56317;27.658;85.326;2023-12-28T01:04:56;6.80;99.90
69204;DHT22;56317;27.658;85.326;2023-12-28T01:07:22;6.80;99.90
69204;DHT22;56317;27.658;85.326;2023-12-28T01:09:48;6.70;99.90
69204;DHT22;56317;27.658;85.326;2023-12-28T01:12:14;6.70;99.90
69204;DHT22;56317;27.658;85.326;2023-12-28T01:14:41;6.80;99.90
69204;DHT22;56317;27.658;85.326;2023-12-28T01:17:07;6.90;99.90
69204;DHT22;56317;27.658;85.326;2023-12-28T01:19:33;7.00;99.90
69204;DHT22;56317;27.658;85.326;2023-12-28T01:22:00;7.00;99.90
69204;DHT22;56317;27.658;85.326;2023-12-28T01:24:26;7.00;99.90
69204;DHT22;56317;27.658;85.326;2023-12-28T01:26:52;6.90;99.90
69204;DHT22;56317;27.658;85.326;2023-12-28T01:29:18;7.00;99.90
69204;DHT22;56317;27.658;85.326;2023-12-28T01:31:45;7.10;99.90
69204;DHT22;56317;27.658;85.326;2023-12-28T01:34:11;7.10;99.90
69204;DHT22;56317;27.658;85.326;2023-12-28T01:36:38;7.20;99.90
69204;DHT22;56317;27.658;85.326;2023-12-28T01:39:07;7.20;99.90
69204;DHT22;56317;27.658;85.326;2023-12-28T01:41:33;7.20;99.90
69204;DHT22;56317;27.658;85.326;2023-12-28T01:43:59;7.40;99.90
69204;DHT22;56317;27.658;85.326;2023-12-28T01:46:26;7.50;99.90
69204;DHT22;56317;27.658;85.326;2023-12-28T01:48:52;7.60;99.90
69204;DHT22;56317;27.658;85.326;2023-12-28T01:51:19;7.70;99.90
69204;DHT22;56317;27.658;85.326;2023-12-28T01:53:47;7.80;99.90
69204;DHT22;56317;27.658;85.326;2023-12-28T01:56:13;7.80;99.90
69204;DHT22;56317;27.658;85.326;2023-12-28T01:58:41;8.00;99.90
69204;DHT22;56317;27.658;85.326;2023-12-28T02:01:08;8.10;99.90
69204;DHT22;56317;27.658;85.326;2023-12-28T02:03:34;8.20;99.90
69204;DHT22;56317;27.658;85.326;2023-12-28T02:06:00;8.30;99.90
69204;DHT22;56317;27.658;85.326;2023-12-28T02:08:27;8.40;99.90
69204;DHT22;56317;27.658;85.326;2023-12-28T02:10:53;8.50;99.90
69204;DHT22;56317;27.658;85.326;2023-12-28T02:13:21;8.50;99.90
69204;DHT22;56317;27.658;85.326;2023-12-28T02:15:48;8.60;99.90
69204;DHT22;56317;27.658;85.326;2023-12-28T02:18:20;8.70;99.90
69204;DHT22;56317;27.658;85.326;2023-12-28T02:20:47;8.90;99.90
69204;DHT22;56317;27.658;85.326;2023-12-28T02:23:15;9.10;99.90
69204;DHT22;56317;27.658;85.326;2023-12-28T02:25:41;9.40;99.90
69204;DHT22;56317;27.658;85.326;2023-12-28T02:28:07;9.70;99.90
69204;DHT22;56317;27.658;85.326;2023-12-28T02:30:34;10.00;99.90
69204;DHT22;56317;27.658;85.326;2023-12-28T02:35:33;10.70;99.90
69204;DHT22;56317;27.658;85.326;2023-12-28T02:38:03;10.90;99.90
69204;DHT22;56317;27.658;85.326;2023-12-28T02:40:31;11.10;99.90
69204;DHT22;56317;27.658;85.326;2023-12-28T02:43:00;11.20;99.90
69204;DHT22;56317;27.658;85.326;2023-12-28T02:45:26;11.60;99.90
69204;DHT22;56317;27.658;85.326;2023-12-28T02:47:53;11.90;99.90
69204;DHT22;56317;27.658;85.326;2023-12-28T02:50:19;12.10;99.90
69204;DHT22;56317;27.658;85.326;2023-12-28T02:52:45;12.30;99.90
69204;DHT22;56317;27.658;85.326;2023-12-28T02:55:11;12.40;99.90
69204;DHT22;56317;27.658;85.326;2023-12-28T02:57:38;12.50;99.90
69204;DHT22;56317;27.658;85.326;2023-12-28T03:00:04;12.60;99.90
69204;DHT22;56317;27.658;85.326;2023-12-28T03:02:31;12.70;99.90
69204;DHT22;56317;27.658;85.326;2023-12-28T03:04:58;12.80;99.90
69204;DHT22;56317;27.658;85.326;2023-12-28T03:07:24;13.10;99.90
69204;DHT22;56317;27.658;85.326;2023-12-28T03:09:50;13.30;99.90
69204;DHT22;56317;27.658;85.326;2023-12-28T03:12:17;13.40;99.90
69204;DHT22;56317;27.658;85.326;2023-12-28T03:14:43;13.60;99.90
69204;DHT22;56317;27.658;85.326;2023-12-28T03:17:09;13.90;99.90
69204;DHT22;56317;27.658;85.326;2023-12-28T03:19:37;14.20;99.90
69204;DHT22;56317;27.658;85.326;2023-12-28T03:22:03;14.50;99.90
69204;DHT22;56317;27.658;85.326;2023-12-28T03:24:29;14.90;99.90
69204;DHT22;56317;27.658;85.326;2023-12-28T03:26:56;15.40;99.90
69204;DHT22;56317;27.658;85.326;2023-12-28T03:29:23;15.90;99.90
69204;DHT22;56317;27.658;85.326;2023-12-28T03:31:49;16.50;99.90
69204;DHT22;56317;27.658;85.326;2023-12-28T03:34:16;16.90;99.90
69204;DHT22;56317;27.658;85.326;2023-12-28T03:36:43;17.30;99.90
69204;DHT22;56317;27.658;85.326;2023-12-28T03:39:09;17.90;99.90
69204;DHT22;56317;27.658;85.326;2023-12-28T03:41:36;18.40;99.90
69204;DHT22;56317;27.658;85.326;2023-12-28T03:44:02;18.90;99.90
69204;DHT22;56317;27.658;85.326;2023-12-28T03:46:28;19.30;99.90
69204;DHT22;56317;27.658;85.326;2023-12-28T03:48:55;19.70;99.90
69204;DHT22;56317;27.658;85.326;2023-12-28T03:51:21;20.30;99.90
69204;DHT22;56317;27.658;85.326;2023-12-28T03:53:48;20.80;99.90
69204;DHT22;56317;27.658;85.326;2023-12-28T03:56:24;21.20;99.90
69204;DHT22;56317;27.658;85.326;2023-12-28T03:58:50;21.60;99.60
69204;DHT22;56317;27.658;85.326;2023-12-28T04:01:20;22.10;98.00
69204;DHT22;56317;27.658;85.326;2023-12-28T04:03:47;22.60;97.10
69204;DHT22;56317;27.658;85.326;2023-12-28T04:06:13;22.90;95.00
69204;DHT22;56317;27.658;85.326;2023-12-28T04:08:41;23.30;94.50
69204;DHT22;56317;27.658;85.326;2023-12-28T04:11:08;23.80;94.50
69204;DHT22;56317;27.658;85.326;2023-12-28T04:13:34;24.60;93.50
69204;DHT22;56317;27.658;85.326;2023-12-28T04:16:01;25.10;92.00
69204;DHT22;56317;27.658;85.326;2023-12-28T04:18:28;25.70;90.60
69204;DHT22;56317;27.658;85.326;2023-12-28T04:20:54;26.30;90.00
69204;DHT22;56317;27.658;85.326;2023-12-28T04:23:20;27.00;87.50
69204;DHT22;56317;27.658;85.326;2023-12-28T04:25:47;27.30;83.80
69204;DHT22;56317;27.658;85.326;2023-12-28T04:28:13;27.70;82.90
69204;DHT22;56317;27.658;85.326;2023-12-28T04:30:39;28.10;82.00
69204;DHT22;56317;27.658;85.326;2023-12-28T04:33:06;28.50;79.20
69204;DHT22;56317;27.658;85.326;2023-12-28T04:35:32;28.80;76.80
69204;DHT22;56317;27.658;85.326;2023-12-28T04:37:59;29.20;75.50
69204;DHT22;56317;27.658;85.326;2023-12-28T04:40:25;29.40;74.10
69204;DHT22;56317;27.658;85.326;2023-12-28T04:42:52;29.70;72.50
69204;DHT22;56317;27.658;85.326;2023-12-28T04:45:18;29.70;72.00
69204;DHT22;56317;27.658;85.326;2023-12-28T04:47:44;30.20;70.40
69204;DHT22;56317;27.658;85.326;2023-12-28T04:50:11;30.50;68.60
69204;DHT22;56317;27.658;85.326;2023-12-28T04:52:40;30.80;66.40
69204;DHT22;56317;27.658;85.326;2023-12-28T04:55:06;30.80;67.30
69204;DHT22;56317;27.658;85.326;2023-12-28T04:57:33;31.10;66.60
69204;DHT22;56317;27.658;85.326;2023-12-28T04:59:59;31.70;66.00
69204;DHT22;56317;27.658;85.326;2023-12-28T05:02:25;32.40;64.10
69204;DHT22;56317;27.658;85.326;2023-12-28T05:04:52;33.00;63.20
69204;DHT22;56317;27.658;85.326;2023-12-28T05:07:19;33.50;62.30
69204;DHT22;56317;27.658;85.326;2023-12-28T05:09:45;33.60;60.00
69204;DHT22;56317;27.658;85.326;2023-12-28T05:12:12;33.60;59.00
69204;DHT22;56317;27.658;85.326;2023-12-28T05:14:38;33.40;58.30
69204;DHT22;56317;27.658;85.326;2023-12-28T05:17:04;33.20;59.50
69204;DHT22;56317;27.658;85.326;2023-12-28T05:19:31;33.30;58.90
69204;DHT22;56317;27.658;85.326;2023-12-28T05:21:57;33.60;59.10
69204;DHT22;56317;27.658;85.326;2023-12-28T05:24:24;33.90;58.60
69204;DHT22;56317;27.658;85.326;2023-12-28T05:26:50;33.90;56.70
69204;DHT22;56317;27.658;85.326;2023-12-28T05:29:17;34.20;57.40
69204;DHT22;56317;27.658;85.326;2023-12-28T05:31:43;34.50;57.20
69204;DHT22;56317;27.658;85.326;2023-12-28T05:34:09;34.60;56.20
69204;DHT22;56317;27.658;85.326;2023-12-28T05:36:36;34.80;55.80
69204;DHT22;56317;27.658;85.326;2023-12-28T05:39:03;35.00;55.10
69204;DHT22;56317;27.658;85.326;2023-12-28T05:41:29;35.40;54.50
69204;DHT22;56317;27.658;85.326;2023-12-28T05:43:56;35.80;54.40
69204;DHT22;56317;27.658;85.326;2023-12-28T05:46:22;35.90;53.50
69204;DHT22;56317;27.658;85.326;2023-12-28T05:48:49;36.00;53.00
69204;DHT22;56317;27.658;85.326;2023-12-28T05:51:15;36.30;53.60
69204;DHT22;56317;27.658;85.326;2023-12-28T05:53:41;36.20;52.40
69204;DHT22;56317;27.658;85.326;2023-12-28T05:56:08;36.30;52.50
69204;DHT22;56317;27.658;85.326;2023-12-28T05:58:34;36.10;51.90
69204;DHT22;56317;27.658;85.326;2023-12-28T06:01:01;36.50;51.70
69204;DHT22;56317;27.658;85.326;2023-12-28T06:03:27;37.10;51.00
69204;DHT22;56317;27.658;85.326;2023-12-28T06:05:55;37.50;50.50
69204;DHT22;56317;27.658;85.326;2023-12-28T06:08:22;37.70;50.60
69204;DHT22;56317;27.658;85.326;2023-12-28T06:10:49;38.00;50.40
69204;DHT22;56317;27.658;85.326;2023-12-28T06:13:16;37.90;49.30
69204;DHT22;56317;27.658;85.326;2023-12-28T06:15:42;37.90;48.70
69204;DHT22;56317;27.658;85.326;2023-12-28T06:18:09;38.20;48.00
69204;DHT22;56317;27.658;85.326;2023-12-28T06:20:35;37.80;48.10
69204;DHT22;56317;27.658;85.326;2023-12-28T06:23:02;38.10;48.20
69204;DHT22;56317;27.658;85.326;2023-12-28T06:25:29;38.50;47.30
69204;DHT22;56317;27.658;85.326;2023-12-28T06:27:55;38.90;47.20
69204;DHT22;56317;27.658;85.326;2023-12-28T06:30:21;39.00;47.60
69204;DHT22;56317;27.658;85.326;2023-12-28T06:32:48;39.10;45.90
69204;DHT22;56317;27.658;85.326;2023-12-28T06:35:14;39.20;45.50
69204;DHT22;56317;27.658;85.326;2023-12-28T06:37:42;39.00;45.30
69204;DHT22;56317;27.658;85.326;2023-12-28T06:40:09;38.90;44.60
69204;DHT22;56317;27.658;85.326;2023-12-28T06:42:35;39.00;43.60
69204;DHT22;56317;27.658;85.326;2023-12-28T06:45:01;39.10;44.00
69204;DHT22;56317;27.658;85.326;2023-12-28T06:47:28;39.60;43.60
69204;DHT22;56317;27.658;85.326;2023-12-28T06:49:54;40.00;43.40
69204;DHT22;56317;27.658;85.326;2023-12-28T06:52:21;40.10;43.00
69204;DHT22;56317;27.658;85.326;2023-12-28T06:54:50;40.00;43.20
69204;DHT22;56317;27.658;85.326;2023-12-28T06:57:16;40.20;42.90
69204;DHT22;56317;27.658;85.326;2023-12-28T06:59:42;40.30;44.30
69204;DHT22;56317;27.658;85.326;2023-12-28T07:02:09;40.10;43.20
69204;DHT22;56317;27.658;85.326;2023-12-28T07:04:35;40.80;42.90
69204;DHT22;56317;27.658;85.326;2023-12-28T07:07:02;40.90;42.40
69204;DHT22;56317;27.658;85.326;2023-12-28T07:09:28;41.20;42.80
69204;DHT22;56317;27.658;85.326;2023-12-28T07:11:54;41.10;42.60
69204;DHT22;56317;27.658;85.326;2023-12-28T07:14:21;41.50;42.90
69204;DHT22;56317;27.658;85.326;2023-12-28T07:16:47;41.40;41.80
69204;DHT22;56317;27.658;85.326;2023-12-28T07:19:13;41.80;41.80
69204;DHT22;56317;27.658;85.326;2023-12-28T07:21:40;41.30;41.20
69204;DHT22;56317;27.658;85.326;2023-12-28T07:24:06;41.50;41.90
69204;DHT22;56317;27.658;85.326;2023-12-28T07:26:32;40.30;41.50
69204;DHT22;56317;27.658;85.326;2023-12-28T07:28:59;38.70;42.70
69204;DHT22;56317;27.658;85.326;2023-12-28T07:31:26;37.30;43.80
69204;DHT22;56317;27.658;85.326;2023-12-28T07:33:53;36.60;44.60
69204;DHT22;56317;27.658;85.326;2023-12-28T07:36:20;35.50;45.20
69204;DHT22;56317;27.658;85.326;2023-12-28T07:38:46;34.40;46.90
69204;DHT22;56317;27.658;85.326;2023-12-28T07:41:12;36.20;45.90
69204;DHT22;56317;27.658;85.326;2023-12-28T07:43:39;37.70;44.30
69204;DHT22;56317;27.658;85.326;2023-12-28T07:46:05;39.20;43.60
69204;DHT22;56317;27.658;85.326;2023-12-28T07:48:32;40.30;43.30
69204;DHT22;56317;27.658;85.326;2023-12-28T07:50:58;41.00;43.00
69204;DHT22;56317;27.658;85.326;2023-12-28T07:53:25;41.10;42.50
69204;DHT22;56317;27.658;85.326;2023-12-28T07:55:51;41.50;41.80
69204;DHT22;56317;27.658;85.326;2023-12-28T07:58:22;39.90;41.80
69204;DHT22;56317;27.658;85.326;2023-12-28T08:00:48;36.30;42.70
69204;DHT22;56317;27.658;85.326;2023-12-28T08:03:15;32.90;45.10
69204;DHT22;56317;27.658;85.326;2023-12-28T08:05:41;30.40;47.40
69204;DHT22;56317;27.658;85.326;2023-12-28T08:08:07;29.20;49.40
69204;DHT22;56317;27.658;85.326;2023-12-28T08:10:34;28.60;50.10
69204;DHT22;56317;27.658;85.326;2023-12-28T08:13:00;27.60;51.30
69204;DHT22;56317;27.658;85.326;2023-12-28T08:15:27;27.00;52.20
69204;DHT22;56317;27.658;85.326;2023-12-28T08:17:53;26.40;53.00
69204;DHT22;56317;27.658;85.326;2023-12-28T08:20:19;25.80;53.30
69204;DHT22;56317;27.658;85.326;2023-12-28T08:22:46;25.20;54.50
69204;DHT22;56317;27.658;85.326;2023-12-28T08:25:12;24.80;55.30
69204;DHT22;56317;27.658;85.326;2023-12-28T08:27:38;25.00;55.50
69204;DHT22;56317;27.658;85.326;2023-12-28T08:30:05;25.80;56.00
69204;DHT22;56317;27.658;85.326;2023-12-28T08:32:32;28.90;54.90
69204;DHT22;56317;27.658;85.326;2023-12-28T08:34:58;31.90;51.00
69204;DHT22;56317;27.658;85.326;2023-12-28T08:37:25;33.80;49.20
69204;DHT22;56317;27.658;85.326;2023-12-28T08:39:51;35.40;47.30
69204;DHT22;56317;27.658;85.326;2023-12-28T08:42:19;36.40;45.80
69204;DHT22;56317;27.658;85.326;2023-12-28T08:44:45;37.10;45.80
69204;DHT22;56317;27.658;85.326;2023-12-28T08:47:11;37.90;45.20
69204;DHT22;56317;27.658;85.326;2023-12-28T08:49:38;38.60;44.50
69204;DHT22;56317;27.658;85.326;2023-12-28T08:52:04;39.00;43.70
69204;DHT22;56317;27.658;85.326;2023-12-28T08:54:30;39.70;43.30
69204;DHT22;56317;27.658;85.326;2023-12-28T08:56:57;39.80;42.90
69204;DHT22;56317;27.658;85.326;2023-12-28T08:59:28;39.50;42.60
69204;DHT22;56317;27.658;85.326;2023-12-28T09:01:54;38.80;42.60
69204;DHT22;56317;27.658;85.326;2023-12-28T09:04:20;38.60;43.20
69204;DHT22;56317;27.658;85.326;2023-12-28T09:06:47;38.80;43.70
69204;DHT22;56317;27.658;85.326;2023-12-28T09:09:13;37.00;44.10
69204;DHT22;56317;27.658;85.326;2023-12-28T09:11:40;35.20;45.80
69204;DHT22;56317;27.658;85.326;2023-12-28T09:14:06;33.20;47.10
69204;DHT22;56317;27.658;85.326;2023-12-28T09:16:33;29.70;51.20
69204;DHT22;56317;27.658;85.326;2023-12-28T09:18:59;28.30;52.90
69204;DHT22;56317;27.658;85.326;2023-12-28T09:21:25;27.90;53.90
69204;DHT22;56317;27.658;85.326;2023-12-28T09:23:52;27.70;54.40
69204;DHT22;56317;27.658;85.326;2023-12-28T09:26:18;27.60;54.80
69204;DHT22;56317;27.658;85.326;2023-12-28T09:28:45;27.80;54.60
69204;DHT22;56317;27.658;85.326;2023-12-28T09:31:11;27.60;54.40
69204;DHT22;56317;27.658;85.326;2023-12-28T09:33:37;28.00;54.90
69204;DHT22;56317;27.658;85.326;2023-12-28T09:36:04;28.20;53.80
69204;DHT22;56317;27.658;85.326;2023-12-28T09:38:30;27.30;54.50
69204;DHT22;56317;27.658;85.326;2023-12-28T09:40:57;27.10;55.00
69204;DHT22;56317;27.658;85.326;2023-12-28T09:43:37;27.10;55.70
69204;DHT22;56317;27.658;85.326;2023-12-28T09:46:07;26.70;56.10
69204;DHT22;56317;27.658;85.326;2023-12-28T09:48:37;26.40;56.10
69204;DHT22;56317;27.658;85.326;2023-12-28T09:51:06;26.50;56.10
69204;DHT22;56317;27.658;85.326;2023-12-28T09:53:32;26.20;56.80
69204;DHT22;56317;27.658;85.326;2023-12-28T09:55:59;25.50;57.20
69204;DHT22;56317;27.658;85.326;2023-12-28T09:58:25;23.90;59.80
69204;DHT22;56317;27.658;85.326;2023-12-28T10:00:53;21.80;63.70
69204;DHT22;56317;27.658;85.326;2023-12-28T10:03:20;21.60;65.40
69204;DHT22;56317;27.658;85.326;2023-12-28T10:05:46;22.10;63.80
69204;DHT22;56317;27.658;85.326;2023-12-28T10:08:13;22.50;63.70
69204;DHT22;56317;27.658;85.326;2023-12-28T10:10:40;23.80;61.50
69204;DHT22;56317;27.658;85.326;2023-12-28T10:13:07;25.50;58.90
69204;DHT22;56317;27.658;85.326;2023-12-28T10:15:33;24.60;58.30
69204;DHT22;56317;27.658;85.326;2023-12-28T10:18:00;23.00;60.50
69204;DHT22;56317;27.658;85.326;2023-12-28T10:20:27;22.30;63.00
69204;DHT22;56317;27.658;85.326;2023-12-28T10:22:53;22.20;63.90
69204;DHT22;56317;27.658;85.326;2023-12-28T10:25:19;22.20;64.90
69204;DHT22;56317;27.658;85.326;2023-12-28T10:27:49;21.50;66.70
69204;DHT22;56317;27.658;85.326;2023-12-28T10:30:16;20.70;68.90
69204;DHT22;56317;27.658;85.326;2023-12-28T10:32:42;20.50;70.00
69204;DHT22;56317;27.658;85.326;2023-12-28T10:35:09;20.30;71.30
69204;DHT22;56317;27.658;85.326;2023-12-28T10:37:36;20.30;71.50
69204;DHT22;56317;27.658;85.326;2023-12-28T10:40:05;20.50;72.00
69204;DHT22;56317;27.658;85.326;2023-12-28T10:42:34;20.70;70.50
69204;DHT22;56317;27.658;85.326;2023-12-28T10:45:04;20.50;71.00
69204;DHT22;56317;27.658;85.326;2023-12-28T10:47:38;20.60;72.00
69204;DHT22;56317;27.658;85.326;2023-12-28T10:50:05;20.70;71.60
69204;DHT22;56317;27.658;85.326;2023-12-28T10:52:32;20.50;71.70
69204;DHT22;56317;27.658;85.326;2023-12-28T10:57:29;19.70;74.10
69204;DHT22;56317;27.658;85.326;2023-12-28T11:02:26;18.40;78.00
69204;DHT22;56317;27.658;85.326;2023-12-28T11:04:54;18.10;80.40
69204;DHT22;56317;27.658;85.326;2023-12-28T11:07:21;18.00;80.00
69204;DHT22;56317;27.658;85.326;2023-12-28T11:09:47;17.80;80.90
69204;DHT22;56317;27.658;85.326;2023-12-28T11:12:15;17.40;82.40
69204;DHT22;56317;27.658;85.326;2023-12-28T11:14:44;16.90;84.90
69204;DHT22;56317;27.658;85.326;2023-12-28T11:17:10;16.50;87.10
69204;DHT22;56317;27.658;85.326;2023-12-28T11:19:37;16.30;87.90
69204;DHT22;56317;27.658;85.326;2023-12-28T11:22:04;16.10;89.20
69204;DHT22;56317;27.658;85.326;2023-12-28T11:24:34;15.90;90.10
69204;DHT22;56317;27.658;85.326;2023-12-28T11:27:01;15.70;90.70
69204;DHT22;56317;27.658;85.326;2023-12-28T11:29:29;15.50;91.10
69204;DHT22;56317;27.658;85.326;2023-12-28T11:31:57;15.50;91.60
69204;DHT22;56317;27.658;85.326;2023-12-28T11:34:30;15.40;92.00
69204;DHT22;56317;27.658;85.326;2023-12-28T11:37:08;15.30;92.70
69204;DHT22;56317;27.658;85.326;2023-12-28T11:39:38;15.20;93.20
69204;DHT22;56317;27.658;85.326;2023-12-28T11:42:06;15.10;93.90
69204;DHT22;56317;27.658;85.326;2023-12-28T11:44:42;15.10;94.10
69204;DHT22;56317;27.658;85.326;2023-12-28T11:49:41;15.10;95.80
69204;DHT22;56317;27.658;85.326;2023-12-28T11:52:08;15.00;96.10
69204;DHT22;56317;27.658;85.326;2023-12-28T11:54:36;15.00;96.80
69204;DHT22;56317;27.658;85.326;2023-12-28T11:57:03;14.90;97.90
69204;DHT22;56317;27.658;85.326;2023-12-28T11:59:32;14.90;98.30
69204;DHT22;56317;27.658;85.326;2023-12-28T12:01:59;14.80;99.20
69204;DHT22;56317;27.658;85.326;2023-12-28T12:04:25;14.80;99.90
69204;DHT22;56317;27.658;85.326;2023-12-28T12:06:51;14.70;99.70
69204;DHT22;56317;27.658;85.326;2023-12-28T12:09:19;14.70;99.90
69204;DHT22;56317;27.658;85.326;2023-12-28T12:11:48;14.50;99.90
69204;DHT22;56317;27.658;85.326;2023-12-28T12:14:14;14.50;99.90
69204;DHT22;56317;27.658;85.326;2023-12-28T12:16:41;14.50;99.90
69204;DHT22;56317;27.658;85.326;2023-12-28T12:19:07;14.50;99.90
69204;DHT22;56317;27.658;85.326;2023-12-28T12:21:34;14.50;99.90
69204;DHT22;56317;27.658;85.326;2023-12-28T12:24:00;14.40;99.90
69204;DHT22;56317;27.658;85.326;2023-12-28T12:26:30;14.30;99.90
69204;DHT22;56317;27.658;85.326;2023-12-28T12:28:57;14.30;99.90
69204;DHT22;56317;27.658;85.326;2023-12-28T12:31:24;14.30;99.90
69204;DHT22;56317;27.658;85.326;2023-12-28T12:33:50;14.30;99.90
69204;DHT22;56317;27.658;85.326;2023-12-28T12:36:17;14.20;99.90
69204;DHT22;56317;27.658;85.326;2023-12-28T12:38:43;14.20;99.90
69204;DHT22;56317;27.658;85.326;2023-12-28T12:41:10;14.20;99.90
69204;DHT22;56317;27.658;85.326;2023-12-28T12:43:37;14.00;99.90
69204;DHT22;56317;27.658;85.326;2023-12-28T12:46:04;13.90;99.90
69204;DHT22;56317;27.658;85.326;2023-12-28T12:48:30;13.80;99.90
69204;DHT22;56317;27.658;85.326;2023-12-28T12:50:56;13.80;99.90
69204;DHT22;56317;27.658;85.326;2023-12-28T12:53:23;13.70;99.90
69204;DHT22;56317;27.658;85.326;2023-12-28T12:55:53;13.60;99.90
69204;DHT22;56317;27.658;85.326;2023-12-28T12:58:20;13.50;99.90
69204;DHT22;56317;27.658;85.326;2023-12-28T13:00:48;13.40;99.90
69204;DHT22;56317;27.658;85.326;2023-12-28T13:03:14;13.40;99.90
69204;DHT22;56317;27.658;85.326;2023-12-28T13:05:41;13.40;99.90
69204;DHT22;56317;27.658;85.326;2023-12-28T13:08:09;13.40;99.90
69204;DHT22;56317;27.658;85.326;2023-12-28T13:10:35;13.40;99.90
69204;DHT22;56317;27.658;85.326;2023-12-28T13:13:02;13.40;99.90
69204;DHT22;56317;27.658;85.326;2023-12-28T13:15:29;13.40;99.90
69204;DHT22;56317;27.658;85.326;2023-12-28T13:17:55;13.30;99.90
69204;DHT22;56317;27.658;85.326;2023-12-28T13:20:21;13.20;99.90
69204;DHT22;56317;27.658;85.326;2023-12-28T13:22:47;13.10;99.90
69204;DHT22;56317;27.658;85.326;2023-12-28T13:25:14;13.00;99.90
69204;DHT22;56317;27.658;85.326;2023-12-28T13:27:40;12.90;99.90
69204;DHT22;56317;27.658;85.326;2023-12-28T13:30:07;12.90;99.90
69204;DHT22;56317;27.658;85.326;2023-12-28T13:32:34;12.90;99.90
69204;DHT22;56317;27.658;85.326;2023-12-28T13:35:00;12.80;99.90
69204;DHT22;56317;27.658;85.326;2023-12-28T13:37:26;12.80;99.90
69204;DHT22;56317;27.658;85.326;2023-12-28T13:39:52;12.80;99.90
69204;DHT22;56317;27.658;85.326;2023-12-28T13:42:19;12.80;99.90
69204;DHT22;56317;27.658;85.326;2023-12-28T13:44:45;12.70;99.90
69204;DHT22;56317;27.658;85.326;2023-12-28T13:47:11;12.80;99.90
69204;DHT22;56317;27.658;85.326;2023-12-28T13:49:38;12.80;99.90
69204;DHT22;56317;27.658;85.326;2023-12-28T13:52:04;12.70;99.90
69204;DHT22;56317;27.658;85.326;2023-12-28T13:54:31;12.70;99.90
69204;DHT22;56317;27.658;85.326;2023-12-28T13:56:57;12.60;99.90
69204;DHT22;56317;27.658;85.326;2023-12-28T13:59:24;12.50;99.90
69204;DHT22;56317;27.658;85.326;2023-12-28T14:01:51;12.40;99.90
69204;DHT22;56317;27.658;85.326;2023-12-28T14:04:17;12.40;99.90
69204;DHT22;56317;27.658;85.326;2023-12-28T14:06:43;12.40;99.90
69204;DHT22;56317;27.658;85.326;2023-12-28T14:09:09;12.30;99.90
69204;DHT22;56317;27.658;85.326;2023-12-28T14:11:37;12.30;99.90
69204;DHT22;56317;27.658;85.326;2023-12-28T14:14:04;12.20;99.90
69204;DHT22;56317;27.658;85.326;2023-12-28T14:16:30;12.10;99.90
69204;DHT22;56317;27.658;85.326;2023-12-28T14:18:56;12.00;99.90
69204;DHT22;56317;27.658;85.326;2023-12-28T14:21:23;12.00;99.90
69204;DHT22;56317;27.658;85.326;2023-12-28T14:23:49;12.00;99.90
69204;DHT22;56317;27.658;85.326;2023-12-28T14:26:17;12.10;99.90
69204;DHT22;56317;27.658;85.326;2023-12-28T14:28:44;12.20;99.90
69204;DHT22;56317;27.658;85.326;2023-12-28T14:31:10;12.20;99.90
69204;DHT22;56317;27.658;85.326;2023-12-28T14:33:37;12.10;99.90
69204;DHT22;56317;27.658;85.326;2023-12-28T14:36:14;12.10;99.90
69204;DHT22;56317;27.658;85.326;2023-12-28T14:38:43;12.10;99.90
69204;DHT22;56317;27.658;85.326;2023-12-28T14:41:09;12.00;99.90
69204;DHT22;56317;27.658;85.326;2023-12-28T14:43:35;12.00;99.90
69204;DHT22;56317;27.658;85.326;2023-12-28T14:46:02;12.00;99.90
69204;DHT22;56317;27.658;85.326;2023-12-28T14:48:30;11.80;99.90
69204;DHT22;56317;27.658;85.326;2023-12-28T14:50:57;11.60;99.90
69204;DHT22;56317;27.658;85.326;2023-12-28T14:53:23;11.50;99.90
69204;DHT22;56317;27.658;85.326;2023-12-28T14:55:51;11.30;99.90
69204;DHT22;56317;27.658;85.326;2023-12-28T14:58:18;11.20;99.90
69204;DHT22;56317;27.658;85.326;2023-12-28T15:00:48;11.10;99.90
69204;DHT22;56317;27.658;85.326;2023-12-28T15:03:14;11.10;99.90
69204;DHT22;56317;27.658;85.326;2023-12-28T15:05:40;11.20;99.90
69204;DHT22;56317;27.658;85.326;2023-12-28T15:08:07;11.20;99.90
69204;DHT22;56317;27.658;85.326;2023-12-28T15:10:33;11.20;99.90
69204;DHT22;56317;27.658;85.326;2023-12-28T15:13:00;11.10;99.90
69204;DHT22;56317;27.658;85.326;2023-12-28T15:15:26;11.00;99.90
69204;DHT22;56317;27.658;85.326;2023-12-28T15:17:53;10.90;99.90
69204;DHT22;56317;27.658;85.326;2023-12-28T15:20:19;10.80;99.90
69204;DHT22;56317;27.658;85.326;2023-12-28T15:22:46;10.70;99.90
69204;DHT22;56317;27.658;85.326;2023-12-28T15:25:12;10.60;99.90